SCC: Mid-Ohio qualifying times

Pos Num Class Team Time Gap To 1st Speed --- --- ----- ------------------------------ ---------- ------- ------- ------- 1. 96 GS Turner Motorsport 1:35.320 85.279 2. 18...

Pos Num Class Team                                 Time     Gap  To 1st   Speed
--- --- ----- ------------------------------ ---------- ------- ------- -------
 1.  96 GS    Turner Motorsport                1:35.320                  85.279
 2.  18 GS    Race Prep Motorsports            1:35.429   0.109   0.109  85.182
 3.  05 GS    Multimatic Motorsports           1:35.431   0.002   0.111  85.180
 4.  28 GS    Race Prep Motorsports            1:35.777   0.346   0.457  84.872
 5.  59 GS    Rehagen Racing                   1:35.972   0.195   0.652  84.700
 6.  17 GS    Doncaster Racing                 1:35.979   0.007   0.659  84.694
 7.  40 GS    Team Sahlen                      1:36.007   0.028   0.687  84.669
 8.  90 GS    Automatic Racing                 1:36.191   0.184   0.871  84.507
 9.  38 GS    BGB Motorsports                  1:36.315   0.124   0.995  84.398
10.  55 GS    Multimatic Motorsports           1:36.356   0.041   1.036  84.362
11.  11 GS    Powell Motorsport                1:36.425   0.069   1.105  84.302
12.   7 GS    Power Racing Team                1:36.525   0.100   1.205  84.214
13.  99 GS    Anchor Racing                    1:36.548   0.023   1.228  84.194
14.   5 GS    Blackforest Motorsports          1:36.734   0.186   1.414  84.033
15.  85 GS    Knobel Racing                    1:37.064   0.330   1.744  83.747
16.  21 GS    Bodymotion Racing                1:37.163   0.099   1.843  83.661
17.  13 GS    Unitech Racing                   1:37.490   0.327   2.170  83.381
18.  63 GS    Team RPM                         1:37.522   0.032   2.202  83.353
19.  93 GS    Anchor Racing                    1:37.545   0.023   2.225  83.334
20.  09 GS    Automatic Racing                 1:37.629   0.084   2.309  83.262
21.   6 GS    Zoom Motorsports                 1:37.731   0.102   2.411  83.175
22.  69 GS    Krohn Racing/TRG                 1:37.764   0.033   2.444  83.147
23.  83 GS    BGB Motorsports                  1:37.873   0.109   2.553  83.055
24.  35 GS    Schuitemaker Motorsports         1:37.882   0.009   2.562  83.047
25.  16 GS    Zoom Motorsports                 1:37.956   0.074   2.636  82.984
26.  60 GS    Finlay Motorsports               1:38.001   0.045   2.681  82.946
27.  88 GS    Knobel Racing                    1:38.332   0.331   3.012  82.667
28.  91 GS    Fiorano Racing                   1:38.393   0.061   3.073  82.616
29.  58 GS    Rehagen Racing                   1:38.446   0.053   3.126  82.571
30.  47 GS    TF Racing                        1:38.593   0.147   3.273  82.448
31.  95 ST    Turner Motorsports               1:39.034   0.441   3.714  82.081
32.  06 ST    Compass360/Racing                1:39.086   0.052   3.766  82.038
33.  89 GS    LNS Motorsports                  1:39.276   0.190   3.956  81.881
34.  70 ST    SpeedSource                      1:39.514   0.238   4.194  81.685
35.  97 ST    Turner Motorsports               1:39.563   0.049   4.243  81.645
36.  92 GS    Anchor Racing                    1:39.574   0.011   4.254  81.636
37.  43 GS    Team Sahlen                      1:39.688   0.114   4.368  81.542
38.  27 ST    Bill Fenton Motorsports          1:39.780   0.092   4.460  81.467
39.  07 GS    Powell Motorsport                1:39.852   0.072   4.532  81.408
40.  00 ST    Georgian Bay Motorsports         1:39.875   0.023   4.555  81.390
41.  87 GS    87                               1:40.020   0.145   4.700  81.272
42.  10 GS    Champion Motorsports             1:40.105   0.085   4.785  81.203
43.  32 ST    Franklin American                1:40.362   0.257   5.042  80.995
44.   2 ST    2                                1:40.462   0.100   5.142  80.914
45.  12 ST    TC Kline Racing                  1:40.545   0.083   5.225  80.847
46.  98 ST    Stewart Motorsports              1:40.588   0.043   5.268  80.813
47.  64 ST    Matt Connolly Motorsports        1:40.736   0.148   5.416  80.694
48.  49 ST    Southpaw Racing                  1:40.838   0.102   5.518  80.612
49.  65 ST    SpeedSource                      1:40.855   0.017   5.535  80.599
50.  01 ST    Georgian Bay Motorsports         1:40.875   0.020   5.555  80.583
51.  75 ST    Kensai Racing                    1:41.082   0.207   5.762  80.418
52.  74 ST    Kensai Racing                    1:41.549   0.467   6.229  80.048
53.  29 ST    Bill Fenton Motorsports          1:41.554   0.005   6.234  80.044
54.  67 ST    SpeedSource                      1:41.660   0.106   6.340  79.961
55.  68 ST    SpeedSource                      1:41.680   0.020   6.360  79.945
56.  51 ST    Fountain Motorsports             1:41.735   0.055   6.415  79.902
57.  36 ST    Compass360/Racing                1:41.767   0.032   6.447  79.877
58.  39 ST    Matt Connolly Motorsports        1:41.954   0.187   6.634  79.730
59.  46 ST    Franklin American Mortgage       1:41.986   0.032   6.666  79.705
60.  50 ST    Southpaw Racing                  1:42.087   0.101   6.767  79.626
61.  72 ST    Anchor Racing                    1:42.143   0.056   6.823  79.583
62.  71 ST    TC Kline Racing                  1:42.171   0.028   6.851  79.561
63.  02 ST    Nuzzo Motorsports                1:42.191   0.020   6.871  79.545
64.  94 ST    Radial Motorsports               1:42.547   0.356   7.227  79.269
65.  66 ST    SpeedSource                      1:42.798   0.251   7.478  79.075
66.  20 ST    Nuzzo Motorsports                1:42.976   0.178   7.656  78.939
67.   0 ST    0                                1:39.981 -3542.9   4.661   6.253
68.  57 ST    Baglieracing                      No Time
69.  62 ST    DEI Racers Group                  No Time

Be part of something big

Write a comment
Show comments
About this article
Series Grand-Am
Drivers Matt Connolly , Bill Fenton
Teams Krohn Racing , Rehagen Racing , Turner Motorsport , Team Sahlen , Multimatic Motorsports , Automatic Racing , Bodymotion Racing , SpeedSource